sensor_id;sensor_type;location;lat;lon;timestamp;P1;durP1;ratioP1;P2;durP2;ratioP2
84080;SDS011;74173;48.190;16.350;2023-11-19T00:00:09;12.02;;;10.18;;
84080;SDS011;74173;48.190;16.350;2023-11-19T00:02:39;11.00;;;8.98;;
84080;SDS011;74173;48.190;16.350;2023-11-19T00:05:05;10.60;;;9.20;;
84080;SDS011;74173;48.190;16.350;2023-11-19T00:07:37;11.88;;;10.30;;
84080;SDS011;74173;48.190;16.350;2023-11-19T00:10:12;12.20;;;10.15;;
84080;SDS011;74173;48.190;16.350;2023-11-19T00:12:39;13.70;;;9.57;;
84080;SDS011;74173;48.190;16.350;2023-11-19T00:15:06;12.57;;;10.40;;
84080;SDS011;74173;48.190;16.350;2023-11-19T00:17:36;11.30;;;10.20;;
84080;SDS011;74173;48.190;16.350;2023-11-19T00:20:06;10.63;;;9.57;;
84080;SDS011;74173;48.190;16.350;2023-11-19T00:22:32;10.85;;;8.07;;
84080;SDS011;74173;48.190;16.350;2023-11-19T00:24:58;11.45;;;9.65;;
84080;SDS011;74173;48.190;16.350;2023-11-19T00:27:24;10.93;;;8.85;;
84080;SDS011;74173;48.190;16.350;2023-11-19T00:29:51;12.82;;;10.63;;
84080;SDS011;74173;48.190;16.350;2023-11-19T00:32:16;13.27;;;9.77;;
84080;SDS011;74173;48.190;16.350;2023-11-19T00:34:45;9.55;;;8.55;;
84080;SDS011;74173;48.190;16.350;2023-11-19T00:37:13;12.13;;;10.25;;
84080;SDS011;74173;48.190;16.350;2023-11-19T00:39:40;10.68;;;9.25;;
84080;SDS011;74173;48.190;16.350;2023-11-19T00:42:06;11.23;;;8.98;;
84080;SDS011;74173;48.190;16.350;2023-11-19T00:44:32;10.45;;;9.38;;
84080;SDS011;74173;48.190;16.350;2023-11-19T00:46:58;9.77;;;8.88;;
84080;SDS011;74173;48.190;16.350;2023-11-19T00:49:25;12.40;;;9.52;;
84080;SDS011;74173;48.190;16.350;2023-11-19T00:51:50;9.45;;;8.05;;
84080;SDS011;74173;48.190;16.350;2023-11-19T00:54:15;10.63;;;9.05;;
84080;SDS011;74173;48.190;16.350;2023-11-19T00:56:41;11.40;;;8.82;;
84080;SDS011;74173;48.190;16.350;2023-11-19T00:59:06;10.93;;;9.15;;
84080;SDS011;74173;48.190;16.350;2023-11-19T01:01:32;11.15;;;8.57;;
84080;SDS011;74173;48.190;16.350;2023-11-19T01:03:58;10.50;;;9.35;;
84080;SDS011;74173;48.190;16.350;2023-11-19T01:06:30;13.18;;;9.40;;
84080;SDS011;74173;48.190;16.350;2023-11-19T01:08:56;10.52;;;9.48;;
84080;SDS011;74173;48.190;16.350;2023-11-19T01:11:23;12.60;;;9.27;;
84080;SDS011;74173;48.190;16.350;2023-11-19T01:13:50;11.10;;;9.30;;
84080;SDS011;74173;48.190;16.350;2023-11-19T01:16:16;12.65;;;8.95;;
84080;SDS011;74173;48.190;16.350;2023-11-19T01:18:44;10.85;;;9.25;;
84080;SDS011;74173;48.190;16.350;2023-11-19T01:21:10;10.82;;;9.38;;
84080;SDS011;74173;48.190;16.350;2023-11-19T01:23:35;9.95;;;8.90;;
84080;SDS011;74173;48.190;16.350;2023-11-19T01:26:02;10.15;;;9.05;;
84080;SDS011;74173;48.190;16.350;2023-11-19T01:28:30;14.00;;;10.05;;
84080;SDS011;74173;48.190;16.350;2023-11-19T01:30:56;11.98;;;10.52;;
84080;SDS011;74173;48.190;16.350;2023-11-19T01:33:22;11.25;;;9.93;;
84080;SDS011;74173;48.190;16.350;2023-11-19T01:35:47;12.45;;;9.70;;
84080;SDS011;74173;48.190;16.350;2023-11-19T01:38:13;12.23;;;10.73;;
84080;SDS011;74173;48.190;16.350;2023-11-19T01:40:39;12.20;;;9.27;;
84080;SDS011;74173;48.190;16.350;2023-11-19T01:43:05;12.63;;;9.43;;
84080;SDS011;74173;48.190;16.350;2023-11-19T01:45:30;12.38;;;10.48;;
84080;SDS011;74173;48.190;16.350;2023-11-19T01:47:56;10.15;;;9.13;;
84080;SDS011;74173;48.190;16.350;2023-11-19T01:50:23;11.02;;;9.70;;
84080;SDS011;74173;48.190;16.350;2023-11-19T01:52:52;10.95;;;9.80;;
84080;SDS011;74173;48.190;16.350;2023-11-19T01:55:19;10.30;;;9.13;;
84080;SDS011;74173;48.190;16.350;2023-11-19T01:57:45;9.32;;;7.85;;
84080;SDS011;74173;48.190;16.350;2023-11-19T02:00:12;11.18;;;9.13;;
84080;SDS011;74173;48.190;16.350;2023-11-19T02:02:38;9.88;;;8.85;;
84080;SDS011;74173;48.190;16.350;2023-11-19T02:05:05;13.30;;;10.25;;
84080;SDS011;74173;48.190;16.350;2023-11-19T02:07:31;13.65;;;10.55;;
84080;SDS011;74173;48.190;16.350;2023-11-19T02:09:57;11.20;;;9.32;;
84080;SDS011;74173;48.190;16.350;2023-11-19T02:12:25;11.68;;;9.82;;
84080;SDS011;74173;48.190;16.350;2023-11-19T02:14:53;12.10;;;10.48;;
84080;SDS011;74173;48.190;16.350;2023-11-19T02:17:26;15.13;;;10.18;;
84080;SDS011;74173;48.190;16.350;2023-11-19T02:19:53;11.57;;;8.93;;
84080;SDS011;74173;48.190;16.350;2023-11-19T02:22:18;9.00;;;8.05;;
84080;SDS011;74173;48.190;16.350;2023-11-19T02:24:46;10.32;;;9.07;;
84080;SDS011;74173;48.190;16.350;2023-11-19T02:27:17;10.25;;;8.63;;
84080;SDS011;74173;48.190;16.350;2023-11-19T02:29:49;11.02;;;9.23;;
84080;SDS011;74173;48.190;16.350;2023-11-19T02:32:15;11.18;;;9.25;;
84080;SDS011;74173;48.190;16.350;2023-11-19T02:34:40;10.40;;;9.35;;
84080;SDS011;74173;48.190;16.350;2023-11-19T02:37:06;9.27;;;8.02;;
84080;SDS011;74173;48.190;16.350;2023-11-19T02:39:31;11.32;;;8.57;;
84080;SDS011;74173;48.190;16.350;2023-11-19T02:41:57;9.93;;;8.23;;
84080;SDS011;74173;48.190;16.350;2023-11-19T02:44:22;10.57;;;9.52;;
84080;SDS011;74173;48.190;16.350;2023-11-19T02:46:48;10.57;;;8.48;;
84080;SDS011;74173;48.190;16.350;2023-11-19T02:49:14;10.60;;;8.88;;
84080;SDS011;74173;48.190;16.350;2023-11-19T02:51:40;9.07;;;8.02;;
84080;SDS011;74173;48.190;16.350;2023-11-19T02:54:06;9.30;;;7.60;;
84080;SDS011;74173;48.190;16.350;2023-11-19T02:56:31;8.73;;;7.88;;
84080;SDS011;74173;48.190;16.350;2023-11-19T02:59:00;7.57;;;6.90;;
84080;SDS011;74173;48.190;16.350;2023-11-19T03:01:37;8.15;;;7.30;;
84080;SDS011;74173;48.190;16.350;2023-11-19T03:04:02;7.20;;;6.50;;
84080;SDS011;74173;48.190;16.350;2023-11-19T03:06:29;8.23;;;7.40;;
84080;SDS011;74173;48.190;16.350;2023-11-19T03:08:54;7.18;;;6.47;;
84080;SDS011;74173;48.190;16.350;2023-11-19T03:11:20;7.30;;;6.70;;
84080;SDS011;74173;48.190;16.350;2023-11-19T03:13:46;7.72;;;7.03;;
84080;SDS011;74173;48.190;16.350;2023-11-19T03:16:12;8.30;;;6.32;;
84080;SDS011;74173;48.190;16.350;2023-11-19T03:18:37;7.07;;;6.28;;
84080;SDS011;74173;48.190;16.350;2023-11-19T03:21:05;8.25;;;7.45;;
84080;SDS011;74173;48.190;16.350;2023-11-19T03:23:33;7.05;;;5.93;;
84080;SDS011;74173;48.190;16.350;2023-11-19T03:25:59;7.20;;;6.50;;
84080;SDS011;74173;48.190;16.350;2023-11-19T03:28:24;6.80;;;6.20;;
84080;SDS011;74173;48.190;16.350;2023-11-19T03:30:49;6.93;;;6.18;;
84080;SDS011;74173;48.190;16.350;2023-11-19T03:33:15;9.23;;;6.97;;
84080;SDS011;74173;48.190;16.350;2023-11-19T03:35:40;6.30;;;5.72;;
84080;SDS011;74173;48.190;16.350;2023-11-19T03:38:06;8.32;;;6.03;;
84080;SDS011;74173;48.190;16.350;2023-11-19T03:40:32;8.80;;;7.90;;
84080;SDS011;74173;48.190;16.350;2023-11-19T03:42:57;7.85;;;7.05;;
84080;SDS011;74173;48.190;16.350;2023-11-19T03:45:25;8.63;;;7.75;;
84080;SDS011;74173;48.190;16.350;2023-11-19T03:47:51;6.60;;;5.90;;
84080;SDS011;74173;48.190;16.350;2023-11-19T03:50:16;7.57;;;6.25;;
84080;SDS011;74173;48.190;16.350;2023-11-19T03:52:45;6.90;;;6.20;;
84080;SDS011;74173;48.190;16.350;2023-11-19T03:55:11;7.63;;;6.10;;
84080;SDS011;74173;48.190;16.350;2023-11-19T03:57:37;7.72;;;6.93;;
84080;SDS011;74173;48.190;16.350;2023-11-19T04:00:03;8.32;;;7.53;;
84080;SDS011;74173;48.190;16.350;2023-11-19T04:02:36;6.32;;;5.72;;
84080;SDS011;74173;48.190;16.350;2023-11-19T04:05:02;6.80;;;6.13;;
84080;SDS011;74173;48.190;16.350;2023-11-19T04:07:30;6.95;;;6.25;;
84080;SDS011;74173;48.190;16.350;2023-11-19T04:09:56;7.18;;;6.50;;
84080;SDS011;74173;48.190;16.350;2023-11-19T04:12:22;6.82;;;6.20;;
84080;SDS011;74173;48.190;16.350;2023-11-19T04:14:47;7.07;;;6.38;;
84080;SDS011;74173;48.190;16.350;2023-11-19T04:17:13;7.93;;;6.63;;
84080;SDS011;74173;48.190;16.350;2023-11-19T04:19:38;8.23;;;6.07;;
84080;SDS011;74173;48.190;16.350;2023-11-19T04:22:07;7.13;;;5.88;;
84080;SDS011;74173;48.190;16.350;2023-11-19T04:24:34;7.57;;;6.60;;
84080;SDS011;74173;48.190;16.350;2023-11-19T04:26:59;8.30;;;7.55;;
84080;SDS011;74173;48.190;16.350;2023-11-19T04:29:25;9.80;;;6.97;;
84080;SDS011;74173;48.190;16.350;2023-11-19T04:31:50;7.60;;;6.78;;
84080;SDS011;74173;48.190;16.350;2023-11-19T04:34:16;8.00;;;7.20;;
84080;SDS011;74173;48.190;16.350;2023-11-19T04:36:42;9.85;;;8.95;;
84080;SDS011;74173;48.190;16.350;2023-11-19T04:39:09;7.75;;;6.97;;
84080;SDS011;74173;48.190;16.350;2023-11-19T04:41:47;7.32;;;6.53;;
84080;SDS011;74173;48.190;16.350;2023-11-19T04:44:20;7.15;;;6.45;;
84080;SDS011;74173;48.190;16.350;2023-11-19T04:46:46;7.78;;;6.38;;
84080;SDS011;74173;48.190;16.350;2023-11-19T04:49:12;8.55;;;7.75;;
84080;SDS011;74173;48.190;16.350;2023-11-19T04:51:39;7.50;;;6.72;;
84080;SDS011;74173;48.190;16.350;2023-11-19T04:54:06;8.75;;;6.82;;
84080;SDS011;74173;48.190;16.350;2023-11-19T04:56:33;8.10;;;6.97;;
84080;SDS011;74173;48.190;16.350;2023-11-19T04:59:00;9.05;;;6.63;;
84080;SDS011;74173;48.190;16.350;2023-11-19T05:01:26;7.55;;;6.72;;
84080;SDS011;74173;48.190;16.350;2023-11-19T05:03:52;8.68;;;7.78;;
84080;SDS011;74173;48.190;16.350;2023-11-19T05:06:18;7.85;;;6.63;;
84080;SDS011;74173;48.190;16.350;2023-11-19T05:08:44;8.65;;;6.90;;
84080;SDS011;74173;48.190;16.350;2023-11-19T05:11:11;7.72;;;6.95;;
84080;SDS011;74173;48.190;16.350;2023-11-19T05:13:43;8.63;;;6.53;;
84080;SDS011;74173;48.190;16.350;2023-11-19T05:16:11;7.78;;;6.97;;
84080;SDS011;74173;48.190;16.350;2023-11-19T05:18:39;8.40;;;6.90;;
84080;SDS011;74173;48.190;16.350;2023-11-19T05:21:06;8.40;;;7.43;;
84080;SDS011;74173;48.190;16.350;2023-11-19T05:23:34;9.40;;;8.50;;
84080;SDS011;74173;48.190;16.350;2023-11-19T05:26:02;8.60;;;7.38;;
84080;SDS011;74173;48.190;16.350;2023-11-19T05:28:27;8.18;;;7.00;;
84080;SDS011;74173;48.190;16.350;2023-11-19T05:30:54;8.43;;;7.22;;
84080;SDS011;74173;48.190;16.350;2023-11-19T05:33:19;9.02;;;8.23;;
84080;SDS011;74173;48.190;16.350;2023-11-19T05:35:45;9.20;;;8.00;;
84080;SDS011;74173;48.190;16.350;2023-11-19T05:38:13;9.32;;;8.43;;
84080;SDS011;74173;48.190;16.350;2023-11-19T05:40:40;9.13;;;7.60;;
84080;SDS011;74173;48.190;16.350;2023-11-19T05:43:06;8.65;;;7.75;;
84080;SDS011;74173;48.190;16.350;2023-11-19T05:45:31;8.93;;;7.28;;
84080;SDS011;74173;48.190;16.350;2023-11-19T05:47:57;9.30;;;8.48;;
84080;SDS011;74173;48.190;16.350;2023-11-19T05:50:23;8.38;;;7.15;;
84080;SDS011;74173;48.190;16.350;2023-11-19T05:52:49;9.55;;;8.65;;
84080;SDS011;74173;48.190;16.350;2023-11-19T05:55:15;10.15;;;8.13;;
84080;SDS011;74173;48.190;16.350;2023-11-19T05:57:40;8.35;;;6.82;;
84080;SDS011;74173;48.190;16.350;2023-11-19T06:00:06;9.60;;;8.30;;
84080;SDS011;74173;48.190;16.350;2023-11-19T06:02:33;10.13;;;8.43;;
84080;SDS011;74173;48.190;16.350;2023-11-19T06:04:59;9.85;;;8.85;;
84080;SDS011;74173;48.190;16.350;2023-11-19T06:07:24;9.93;;;9.00;;
84080;SDS011;74173;48.190;16.350;2023-11-19T06:09:50;9.68;;;8.68;;
84080;SDS011;74173;48.190;16.350;2023-11-19T06:12:15;9.32;;;7.97;;
84080;SDS011;74173;48.190;16.350;2023-11-19T06:14:41;9.60;;;8.60;;
84080;SDS011;74173;48.190;16.350;2023-11-19T06:17:06;10.27;;;8.65;;
84080;SDS011;74173;48.190;16.350;2023-11-19T06:19:33;11.02;;;9.27;;
84080;SDS011;74173;48.190;16.350;2023-11-19T06:21:59;12.90;;;10.00;;
84080;SDS011;74173;48.190;16.350;2023-11-19T06:24:24;10.40;;;9.25;;
84080;SDS011;74173;48.190;16.350;2023-11-19T06:26:50;9.52;;;8.57;;
84080;SDS011;74173;48.190;16.350;2023-11-19T06:29:15;10.25;;;9.07;;
84080;SDS011;74173;48.190;16.350;2023-11-19T06:31:44;9.80;;;8.48;;
84080;SDS011;74173;48.190;16.350;2023-11-19T06:34:10;10.75;;;9.65;;
84080;SDS011;74173;48.190;16.350;2023-11-19T06:36:35;10.35;;;8.95;;
84080;SDS011;74173;48.190;16.350;2023-11-19T06:39:01;11.18;;;8.80;;
84080;SDS011;74173;48.190;16.350;2023-11-19T06:41:27;11.35;;;9.07;;
84080;SDS011;74173;48.190;16.350;2023-11-19T06:43:54;9.25;;;8.13;;
84080;SDS011;74173;48.190;16.350;2023-11-19T06:46:19;8.75;;;7.88;;
84080;SDS011;74173;48.190;16.350;2023-11-19T06:48:45;9.18;;;8.27;;
84080;SDS011;74173;48.190;16.350;2023-11-19T06:51:12;9.57;;;7.50;;
84080;SDS011;74173;48.190;16.350;2023-11-19T06:53:38;8.77;;;7.70;;
84080;SDS011;74173;48.190;16.350;2023-11-19T06:56:17;9.48;;;7.68;;
84080;SDS011;74173;48.190;16.350;2023-11-19T06:58:44;10.60;;;8.25;;
84080;SDS011;74173;48.190;16.350;2023-11-19T07:01:09;11.32;;;8.30;;
84080;SDS011;74173;48.190;16.350;2023-11-19T07:03:35;9.18;;;8.07;;
84080;SDS011;74173;48.190;16.350;2023-11-19T07:06:00;8.82;;;7.72;;
84080;SDS011;74173;48.190;16.350;2023-11-19T07:08:26;9.75;;;8.73;;
84080;SDS011;74173;48.190;16.350;2023-11-19T07:10:52;9.93;;;8.73;;
84080;SDS011;74173;48.190;16.350;2023-11-19T07:13:18;9.25;;;8.27;;
84080;SDS011;74173;48.190;16.350;2023-11-19T07:15:44;10.20;;;8.45;;
84080;SDS011;74173;48.190;16.350;2023-11-19T07:18:10;9.13;;;8.23;;
84080;SDS011;74173;48.190;16.350;2023-11-19T07:20:36;10.15;;;9.13;;
84080;SDS011;74173;48.190;16.350;2023-11-19T07:23:03;9.23;;;8.18;;
84080;SDS011;74173;48.190;16.350;2023-11-19T07:25:29;9.05;;;7.57;;
84080;SDS011;74173;48.190;16.350;2023-11-19T07:27:54;7.75;;;7.00;;
84080;SDS011;74173;48.190;16.350;2023-11-19T07:30:21;8.40;;;7.32;;
84080;SDS011;74173;48.190;16.350;2023-11-19T07:32:47;9.93;;;8.45;;
84080;SDS011;74173;48.190;16.350;2023-11-19T07:35:13;9.18;;;8.27;;
84080;SDS011;74173;48.190;16.350;2023-11-19T07:37:41;9.48;;;8.00;;
84080;SDS011;74173;48.190;16.350;2023-11-19T07:40:07;9.35;;;8.25;;
84080;SDS011;74173;48.190;16.350;2023-11-19T07:42:33;9.10;;;8.18;;
84080;SDS011;74173;48.190;16.350;2023-11-19T07:44:59;8.38;;;7.53;;
84080;SDS011;74173;48.190;16.350;2023-11-19T07:47:24;9.25;;;8.23;;
84080;SDS011;74173;48.190;16.350;2023-11-19T07:49:50;9.88;;;8.48;;
84080;SDS011;74173;48.190;16.350;2023-11-19T07:52:15;10.18;;;9.07;;
84080;SDS011;74173;48.190;16.350;2023-11-19T07:54:41;9.88;;;8.30;;
84080;SDS011;74173;48.190;16.350;2023-11-19T07:57:06;9.50;;;7.72;;
84080;SDS011;74173;48.190;16.350;2023-11-19T07:59:32;9.15;;;8.00;;
84080;SDS011;74173;48.190;16.350;2023-11-19T08:01:57;9.98;;;8.98;;
84080;SDS011;74173;48.190;16.350;2023-11-19T08:04:23;8.85;;;7.88;;
84080;SDS011;74173;48.190;16.350;2023-11-19T08:06:49;9.82;;;7.93;;
84080;SDS011;74173;48.190;16.350;2023-11-19T08:09:14;9.50;;;8.38;;
84080;SDS011;74173;48.190;16.350;2023-11-19T08:11:43;9.23;;;7.40;;
84080;SDS011;74173;48.190;16.350;2023-11-19T08:16:34;9.23;;;8.15;;
84080;SDS011;74173;48.190;16.350;2023-11-19T08:19:00;9.75;;;8.35;;
84080;SDS011;74173;48.190;16.350;2023-11-19T08:21:28;9.80;;;8.80;;
84080;SDS011;74173;48.190;16.350;2023-11-19T08:23:54;9.75;;;8.77;;
84080;SDS011;74173;48.190;16.350;2023-11-19T08:26:19;10.25;;;9.20;;
84080;SDS011;74173;48.190;16.350;2023-11-19T08:28:45;10.40;;;9.40;;
84080;SDS011;74173;48.190;16.350;2023-11-19T08:31:10;9.80;;;8.80;;
84080;SDS011;74173;48.190;16.350;2023-11-19T08:33:36;9.40;;;8.20;;
84080;SDS011;74173;48.190;16.350;2023-11-19T08:36:02;9.18;;;8.27;;
84080;SDS011;74173;48.190;16.350;2023-11-19T08:38:29;8.25;;;7.45;;
84080;SDS011;74173;48.190;16.350;2023-11-19T08:40:54;8.35;;;7.18;;
84080;SDS011;74173;48.190;16.350;2023-11-19T08:43:25;9.40;;;8.40;;
84080;SDS011;74173;48.190;16.350;2023-11-19T08:45:51;8.95;;;8.10;;
84080;SDS011;74173;48.190;16.350;2023-11-19T08:48:16;7.82;;;7.13;;
84080;SDS011;74173;48.190;16.350;2023-11-19T08:50:42;8.95;;;8.02;;
84080;SDS011;74173;48.190;16.350;2023-11-19T08:53:07;8.75;;;7.95;;
84080;SDS011;74173;48.190;16.350;2023-11-19T08:55:33;9.23;;;8.32;;
84080;SDS011;74173;48.190;16.350;2023-11-19T08:57:58;8.80;;;7.70;;
84080;SDS011;74173;48.190;16.350;2023-11-19T09:00:24;8.23;;;7.43;;
84080;SDS011;74173;48.190;16.350;2023-11-19T09:02:49;8.15;;;7.32;;
84080;SDS011;74173;48.190;16.350;2023-11-19T09:05:15;8.63;;;7.68;;
84080;SDS011;74173;48.190;16.350;2023-11-19T09:07:40;8.07;;;7.18;;
84080;SDS011;74173;48.190;16.350;2023-11-19T09:10:06;8.05;;;7.25;;
84080;SDS011;74173;48.190;16.350;2023-11-19T09:12:33;8.60;;;7.57;;
84080;SDS011;74173;48.190;16.350;2023-11-19T09:15:00;9.68;;;8.57;;
84080;SDS011;74173;48.190;16.350;2023-11-19T09:17:25;8.10;;;7.30;;
84080;SDS011;74173;48.190;16.350;2023-11-19T09:19:51;9.38;;;7.80;;
84080;SDS011;74173;48.190;16.350;2023-11-19T09:22:16;7.32;;;6.63;;
84080;SDS011;74173;48.190;16.350;2023-11-19T09:24:42;9.95;;;7.60;;
84080;SDS011;74173;48.190;16.350;2023-11-19T09:27:09;7.25;;;6.55;;
84080;SDS011;74173;48.190;16.350;2023-11-19T09:29:35;8.45;;;7.65;;
84080;SDS011;74173;48.190;16.350;2023-11-19T09:32:01;9.15;;;7.50;;
84080;SDS011;74173;48.190;16.350;2023-11-19T09:34:27;8.40;;;7.60;;
84080;SDS011;74173;48.190;16.350;2023-11-19T09:36:53;9.80;;;7.50;;
84080;SDS011;74173;48.190;16.350;2023-11-19T09:39:18;8.48;;;7.60;;
84080;SDS011;74173;48.190;16.350;2023-11-19T09:41:45;9.38;;;7.95;;
84080;SDS011;74173;48.190;16.350;2023-11-19T09:44:11;8.40;;;7.60;;
84080;SDS011;74173;48.190;16.350;2023-11-19T09:46:38;8.93;;;7.68;;
84080;SDS011;74173;48.190;16.350;2023-11-19T09:49:04;9.52;;;7.63;;
84080;SDS011;74173;48.190;16.350;2023-11-19T09:51:32;9.80;;;8.80;;
84080;SDS011;74173;48.190;16.350;2023-11-19T09:53:58;9.75;;;7.75;;
84080;SDS011;74173;48.190;16.350;2023-11-19T09:56:23;8.40;;;7.70;;
84080;SDS011;74173;48.190;16.350;2023-11-19T09:58:48;9.32;;;8.40;;
84080;SDS011;74173;48.190;16.350;2023-11-19T10:01:14;8.63;;;7.75;;
84080;SDS011;74173;48.190;16.350;2023-11-19T10:03:40;9.73;;;8.60;;
84080;SDS011;74173;48.190;16.350;2023-11-19T10:06:06;10.98;;;8.60;;
84080;SDS011;74173;48.190;16.350;2023-11-19T10:08:33;10.13;;;8.73;;
84080;SDS011;74173;48.190;16.350;2023-11-19T10:11:00;10.77;;;8.05;;
84080;SDS011;74173;48.190;16.350;2023-11-19T10:13:28;8.45;;;7.45;;
84080;SDS011;74173;48.190;16.350;2023-11-19T10:15:55;9.52;;;8.65;;
84080;SDS011;74173;48.190;16.350;2023-11-19T10:18:24;8.88;;;7.97;;
84080;SDS011;74173;48.190;16.350;2023-11-19T10:20:50;8.73;;;7.85;;
84080;SDS011;74173;48.190;16.350;2023-11-19T10:23:16;8.38;;;7.45;;
84080;SDS011;74173;48.190;16.350;2023-11-19T10:25:42;9.82;;;8.82;;
84080;SDS011;74173;48.190;16.350;2023-11-19T10:28:07;8.95;;;8.05;;
84080;SDS011;74173;48.190;16.350;2023-11-19T10:30:33;9.38;;;7.95;;
84080;SDS011;74173;48.190;16.350;2023-11-19T10:33:06;9.60;;;8.63;;
84080;SDS011;74173;48.190;16.350;2023-11-19T10:35:37;9.20;;;8.20;;
84080;SDS011;74173;48.190;16.350;2023-11-19T10:38:21;9.98;;;8.98;;
84080;SDS011;74173;48.190;16.350;2023-11-19T10:40:48;10.20;;;9.20;;
84080;SDS011;74173;48.190;16.350;2023-11-19T10:43:14;9.07;;;8.27;;
84080;SDS011;74173;48.190;16.350;2023-11-19T10:45:40;10.15;;;8.75;;
84080;SDS011;74173;48.190;16.350;2023-11-19T10:48:06;10.07;;;9.15;;
84080;SDS011;74173;48.190;16.350;2023-11-19T10:50:39;9.27;;;8.38;;
84080;SDS011;74173;48.190;16.350;2023-11-19T10:53:07;7.95;;;7.15;;
84080;SDS011;74173;48.190;16.350;2023-11-19T10:55:37;8.65;;;7.82;;
84080;SDS011;74173;48.190;16.350;2023-11-19T10:58:09;9.35;;;8.30;;
84080;SDS011;74173;48.190;16.350;2023-11-19T11:00:44;8.45;;;7.60;;
84080;SDS011;74173;48.190;16.350;2023-11-19T11:03:15;9.60;;;8.23;;
84080;SDS011;74173;48.190;16.350;2023-11-19T11:05:41;9.35;;;7.95;;
84080;SDS011;74173;48.190;16.350;2023-11-19T11:08:07;7.45;;;6.70;;
84080;SDS011;74173;48.190;16.350;2023-11-19T11:10:39;9.13;;;7.75;;
84080;SDS011;74173;48.190;16.350;2023-11-19T11:13:09;9.57;;;8.35;;
84080;SDS011;74173;48.190;16.350;2023-11-19T11:15:35;8.55;;;7.75;;
84080;SDS011;74173;48.190;16.350;2023-11-19T11:18:01;8.25;;;7.13;;
84080;SDS011;74173;48.190;16.350;2023-11-19T11:20:30;8.80;;;7.93;;
84080;SDS011;74173;48.190;16.350;2023-11-19T11:28:41;7.93;;;7.10;;
84080;SDS011;74173;48.190;16.350;2023-11-19T11:31:21;7.20;;;6.38;;
84080;SDS011;74173;48.190;16.350;2023-11-19T11:36:45;8.65;;;7.72;;
84080;SDS011;74173;48.190;16.350;2023-11-19T11:39:33;7.75;;;7.05;;
84080;SDS011;74173;48.190;16.350;2023-11-19T18:43:21;31.20;;;22.55;;
84080;SDS011;74173;48.190;16.350;2023-11-19T18:45:49;34.33;;;21.83;;
84080;SDS011;74173;48.190;16.350;2023-11-19T18:48:18;34.53;;;25.17;;
84080;SDS011;74173;48.190;16.350;2023-11-19T18:50:44;42.72;;;28.70;;
84080;SDS011;74173;48.190;16.350;2023-11-19T18:53:11;34.03;;;21.30;;
84080;SDS011;74173;48.190;16.350;2023-11-19T18:55:40;24.60;;;18.10;;
84080;SDS011;74173;48.190;16.350;2023-11-19T18:58:08;25.75;;;18.58;;
84080;SDS011;74173;48.190;16.350;2023-11-19T19:00:35;24.27;;;17.50;;
84080;SDS011;74173;48.190;16.350;2023-11-19T19:03:02;24.75;;;17.55;;
84080;SDS011;74173;48.190;16.350;2023-11-19T19:05:33;22.08;;;15.73;;
84080;SDS011;74173;48.190;16.350;2023-11-19T19:08:03;20.25;;;15.63;;
84080;SDS011;74173;48.190;16.350;2023-11-19T19:10:30;20.50;;;15.02;;
84080;SDS011;74173;48.190;16.350;2023-11-19T19:12:57;24.33;;;16.85;;
84080;SDS011;74173;48.190;16.350;2023-11-19T19:15:23;21.02;;;17.05;;
